To NAV CANADA Home Page Login to a new session Search on AWWS site Feedback and Comments Disclaimer Vers la page française équivalente Tips FAQ What's new on the site To the Forecasts and Observations / NOTAM section To "File a Flight Plan" website Publications and other links Update of the User's profile FIC Telephone Numbers My Weather Data Folder Route Weather Data Regional Weather Data Local Weather Data To the Forecasts and Observations / NOTAM section
Request Generated 04/24/2014 at 01:29:38 UTC . Weather information available at that time is displayed.

METAR/TAF

GANDER/GANDER INTL/NL    

METAR CYQX 240100Z 08015G21KT 20SM BKN052 OVC075 M01/M04 A2983 RMK
SC7AC1 SLP110=
METAR CYQX 240000Z 08013G18KT 20SM BKN054 OVC076 M01/M04 A2985 RMK
SC5AC3 SLP116=
METAR CYQX 232300Z 09015G24KT 15SM FEW010 OVC077 M01/M04 A2983 RMK
SC1AC7 SLP109=

TAF CYQX 232338Z 2400/2424 09015G25KT P6SM SCT008 BKN040 TEMPO
2400/2405 BKN008 OVC040
FM240500 07015KT P6SM SCT007 BKN030 TEMPO 2406/2414 BKN007
FM241400 06018G28KT P6SM BKN025 TEMPO 2414/2418 5SM -SHRASN BR
OVC020
FM241800 06020G30KT 5SM -SN OVC012 TEMPO 2420/2424 2SM -RASN BR
OVC006
RMK NXT FCST BY 240600Z=
Your time UTC time
Weather data provided by Environment Canada and NAV CANADA